sensor_id;sensor_type;location;lat;lon;timestamp;P1;durP1;ratioP1;P2;durP2;ratioP2
67816;SDS011;54614;47.576;7.524;2023-02-21T00:00:55;3.30;;;2.72;;
67816;SDS011;54614;47.576;7.524;2023-02-21T00:03:39;3.92;;;2.80;;
67816;SDS011;54614;47.576;7.524;2023-02-21T00:06:24;4.85;;;2.90;;
67816;SDS011;54614;47.576;7.524;2023-02-21T00:09:08;4.47;;;2.70;;
67816;SDS011;54614;47.576;7.524;2023-02-21T00:11:52;5.00;;;2.90;;
67816;SDS011;54614;47.576;7.524;2023-02-21T00:14:37;2.92;;;2.63;;
67816;SDS011;54614;47.576;7.524;2023-02-21T00:17:21;4.00;;;2.75;;
67816;SDS011;54614;47.576;7.524;2023-02-21T00:20:06;3.38;;;2.53;;
67816;SDS011;54614;47.576;7.524;2023-02-21T00:22:51;3.72;;;2.50;;
67816;SDS011;54614;47.576;7.524;2023-02-21T00:25:36;3.47;;;2.85;;
67816;SDS011;54614;47.576;7.524;2023-02-21T00:28:20;3.78;;;2.83;;
67816;SDS011;54614;47.576;7.524;2023-02-21T00:31:05;3.45;;;2.80;;
67816;SDS011;54614;47.576;7.524;2023-02-21T00:33:49;5.03;;;2.80;;
67816;SDS011;54614;47.576;7.524;2023-02-21T00:36:34;3.28;;;2.72;;
67816;SDS011;54614;47.576;7.524;2023-02-21T00:39:18;3.15;;;2.42;;
67816;SDS011;54614;47.576;7.524;2023-02-21T00:42:02;3.05;;;2.75;;
67816;SDS011;54614;47.576;7.524;2023-02-21T00:44:47;5.00;;;2.70;;
67816;SDS011;54614;47.576;7.524;2023-02-21T00:47:31;2.83;;;2.47;;
67816;SDS011;54614;47.576;7.524;2023-02-21T00:50:16;3.85;;;2.63;;
67816;SDS011;54614;47.576;7.524;2023-02-21T00:53:00;2.65;;;2.45;;
67816;SDS011;54614;47.576;7.524;2023-02-21T00:55:44;2.70;;;2.50;;
67816;SDS011;54614;47.576;7.524;2023-02-21T00:58:28;4.72;;;2.83;;
67816;SDS011;54614;47.576;7.524;2023-02-21T01:01:13;3.03;;;2.72;;
67816;SDS011;54614;47.576;7.524;2023-02-21T01:03:57;3.10;;;2.50;;
67816;SDS011;54614;47.576;7.524;2023-02-21T01:06:42;3.35;;;2.55;;
67816;SDS011;54614;47.576;7.524;2023-02-21T01:09:26;5.40;;;2.70;;
67816;SDS011;54614;47.576;7.524;2023-02-21T01:12:11;3.72;;;2.58;;
67816;SDS011;54614;47.576;7.524;2023-02-21T01:14:55;3.30;;;2.60;;
67816;SDS011;54614;47.576;7.524;2023-02-21T01:17:39;3.00;;;2.70;;
67816;SDS011;54614;47.576;7.524;2023-02-21T01:20:23;2.92;;;2.63;;
67816;SDS011;54614;47.576;7.524;2023-02-21T01:23:08;2.60;;;2.40;;
67816;SDS011;54614;47.576;7.524;2023-02-21T01:25:52;3.67;;;2.47;;
67816;SDS011;54614;47.576;7.524;2023-02-21T01:28:37;2.88;;;2.60;;
67816;SDS011;54614;47.576;7.524;2023-02-21T01:31:21;3.10;;;2.47;;
67816;SDS011;54614;47.576;7.524;2023-02-21T01:34:06;2.60;;;2.40;;
67816;SDS011;54614;47.576;7.524;2023-02-21T01:36:50;4.68;;;2.83;;
67816;SDS011;54614;47.576;7.524;2023-02-21T01:39:35;3.22;;;2.50;;
67816;SDS011;54614;47.576;7.524;2023-02-21T01:42:19;2.70;;;2.50;;
67816;SDS011;54614;47.576;7.524;2023-02-21T01:45:47;2.70;;;2.50;;
67816;SDS011;54614;47.576;7.524;2023-02-21T01:48:46;3.10;;;2.63;;
67816;SDS011;54614;47.576;7.524;2023-02-21T01:51:37;2.85;;;2.65;;
67816;SDS011;54614;47.576;7.524;2023-02-21T01:54:25;2.58;;;2.38;;
67816;SDS011;54614;47.576;7.524;2023-02-21T01:57:17;3.78;;;2.22;;
67816;SDS011;54614;47.576;7.524;2023-02-21T02:00:03;3.00;;;2.60;;
67816;SDS011;54614;47.576;7.524;2023-02-21T02:02:54;2.50;;;2.30;;
67816;SDS011;54614;47.576;7.524;2023-02-21T02:05:43;4.60;;;2.70;;
67816;SDS011;54614;47.576;7.524;2023-02-21T02:08:34;2.35;;;2.15;;
67816;SDS011;54614;47.576;7.524;2023-02-21T02:33:10;2.53;;;2.30;;
67816;SDS011;54614;47.576;7.524;2023-02-21T02:36:05;2.85;;;2.40;;
67816;SDS011;54614;47.576;7.524;2023-02-21T02:45:02;3.83;;;2.40;;
67816;SDS011;54614;47.576;7.524;2023-02-21T02:47:58;3.42;;;2.35;;
67816;SDS011;54614;47.576;7.524;2023-02-21T02:50:38;3.10;;;2.30;;
67816;SDS011;54614;47.576;7.524;2023-02-21T02:53:05;3.78;;;2.30;;
67816;SDS011;54614;47.576;7.524;2023-02-21T02:55:42;3.47;;;2.33;;
67816;SDS011;54614;47.576;7.524;2023-02-21T02:58:17;2.20;;;2.00;;
67816;SDS011;54614;47.576;7.524;2023-02-21T03:00:51;2.30;;;2.10;;
67816;SDS011;54614;47.576;7.524;2023-02-21T03:15:31;2.30;;;2.10;;
67816;SDS011;54614;47.576;7.524;2023-02-21T03:20:57;2.17;;;1.98;;
67816;SDS011;54614;47.576;7.524;2023-02-21T03:23:27;3.28;;;2.10;;
67816;SDS011;54614;47.576;7.524;2023-02-21T03:25:59;2.35;;;2.15;;
67816;SDS011;54614;47.576;7.524;2023-02-21T03:28:31;2.45;;;2.08;;
67816;SDS011;54614;47.576;7.524;2023-02-21T03:30:59;2.30;;;2.10;;
67816;SDS011;54614;47.576;7.524;2023-02-21T03:33:29;2.30;;;2.00;;
67816;SDS011;54614;47.576;7.524;2023-02-21T03:35:57;2.17;;;1.98;;
67816;SDS011;54614;47.576;7.524;2023-02-21T03:38:28;2.22;;;2.03;;
67816;SDS011;54614;47.576;7.524;2023-02-21T03:40:56;2.60;;;2.10;;
67816;SDS011;54614;47.576;7.524;2023-02-21T03:43:22;2.50;;;2.10;;
67816;SDS011;54614;47.576;7.524;2023-02-21T03:45:48;2.50;;;2.17;;
67816;SDS011;54614;47.576;7.524;2023-02-21T03:48:14;3.78;;;2.03;;
67816;SDS011;54614;47.576;7.524;2023-02-21T03:50:40;2.00;;;1.90;;
67816;SDS011;54614;47.576;7.524;2023-02-21T03:53:05;3.92;;;2.10;;
67816;SDS011;54614;47.576;7.524;2023-02-21T03:55:31;4.55;;;2.20;;
67816;SDS011;54614;47.576;7.524;2023-02-21T03:57:57;4.80;;;2.13;;
67816;SDS011;54614;47.576;7.524;2023-02-21T04:00:23;2.22;;;2.00;;
67816;SDS011;54614;47.576;7.524;2023-02-21T04:02:49;2.72;;;2.30;;
67816;SDS011;54614;47.576;7.524;2023-02-21T04:05:15;3.40;;;1.98;;
67816;SDS011;54614;47.576;7.524;2023-02-21T04:07:41;2.00;;;1.90;;
67816;SDS011;54614;47.576;7.524;2023-02-21T04:10:07;2.03;;;1.90;;
67816;SDS011;54614;47.576;7.524;2023-02-21T04:12:33;2.60;;;1.98;;
67816;SDS011;54614;47.576;7.524;2023-02-21T04:14:59;2.05;;;1.90;;
67816;SDS011;54614;47.576;7.524;2023-02-21T04:17:24;2.03;;;1.83;;
67816;SDS011;54614;47.576;7.524;2023-02-21T04:19:51;2.00;;;1.90;;
67816;SDS011;54614;47.576;7.524;2023-02-21T04:22:16;2.72;;;2.28;;
67816;SDS011;54614;47.576;7.524;2023-02-21T04:24:42;3.40;;;2.17;;
67816;SDS011;54614;47.576;7.524;2023-02-21T04:27:08;3.58;;;2.00;;
67816;SDS011;54614;47.576;7.524;2023-02-21T04:29:34;2.30;;;1.90;;
67816;SDS011;54614;47.576;7.524;2023-02-21T04:32:00;2.40;;;2.00;;
67816;SDS011;54614;47.576;7.524;2023-02-21T04:34:27;3.45;;;1.98;;
67816;SDS011;54614;47.576;7.524;2023-02-21T04:36:53;2.28;;;2.00;;
67816;SDS011;54614;47.576;7.524;2023-02-21T04:39:19;2.10;;;2.00;;
67816;SDS011;54614;47.576;7.524;2023-02-21T04:41:44;2.22;;;2.00;;
67816;SDS011;54614;47.576;7.524;2023-02-21T04:44:11;3.75;;;1.90;;
67816;SDS011;54614;47.576;7.524;2023-02-21T04:46:37;3.17;;;2.00;;
67816;SDS011;54614;47.576;7.524;2023-02-21T04:49:03;2.60;;;2.05;;
67816;SDS011;54614;47.576;7.524;2023-02-21T04:51:29;2.05;;;1.85;;
67816;SDS011;54614;47.576;7.524;2023-02-21T04:53:55;1.90;;;1.80;;
67816;SDS011;54614;47.576;7.524;2023-02-21T04:56:24;2.35;;;1.85;;
67816;SDS011;54614;47.576;7.524;2023-02-21T04:58:52;2.80;;;1.80;;
67816;SDS011;54614;47.576;7.524;2023-02-21T05:01:18;2.20;;;2.00;;
67816;SDS011;54614;47.576;7.524;2023-02-21T05:03:45;2.40;;;1.80;;
67816;SDS011;54614;47.576;7.524;2023-02-21T05:06:16;1.88;;;1.77;;
67816;SDS011;54614;47.576;7.524;2023-02-21T05:08:48;1.80;;;1.70;;
67816;SDS011;54614;47.576;7.524;2023-02-21T05:11:14;2.20;;;2.00;;
67816;SDS011;54614;47.576;7.524;2023-02-21T05:13:43;3.50;;;1.80;;
67816;SDS011;54614;47.576;7.524;2023-02-21T05:16:09;2.08;;;1.90;;
67816;SDS011;54614;47.576;7.524;2023-02-21T05:18:35;2.20;;;1.92;;
67816;SDS011;54614;47.576;7.524;2023-02-21T05:21:03;3.03;;;1.90;;
67816;SDS011;54614;47.576;7.524;2023-02-21T05:23:30;4.45;;;1.88;;
67816;SDS011;54614;47.576;7.524;2023-02-21T05:28:33;2.30;;;1.90;;
67816;SDS011;54614;47.576;7.524;2023-02-21T05:31:01;2.25;;;1.60;;
67816;SDS011;54614;47.576;7.524;2023-02-21T05:33:26;1.80;;;1.70;;
67816;SDS011;54614;47.576;7.524;2023-02-21T05:35:53;3.58;;;1.75;;
67816;SDS011;54614;47.576;7.524;2023-02-21T05:38:20;3.28;;;1.83;;
67816;SDS011;54614;47.576;7.524;2023-02-21T05:40:47;1.65;;;1.55;;
67816;SDS011;54614;47.576;7.524;2023-02-21T05:43:14;4.13;;;2.00;;
67816;SDS011;54614;47.576;7.524;2023-02-21T05:45:40;1.75;;;1.65;;
67816;SDS011;54614;47.576;7.524;2023-02-21T05:48:06;1.95;;;1.80;;
67816;SDS011;54614;47.576;7.524;2023-02-21T05:50:32;1.90;;;1.80;;
67816;SDS011;54614;47.576;7.524;2023-02-21T05:52:58;2.42;;;1.60;;
67816;SDS011;54614;47.576;7.524;2023-02-21T05:55:25;1.80;;;1.70;;
67816;SDS011;54614;47.576;7.524;2023-02-21T05:57:51;3.15;;;1.80;;
67816;SDS011;54614;47.576;7.524;2023-02-21T06:00:19;2.60;;;1.77;;
67816;SDS011;54614;47.576;7.524;2023-02-21T06:02:51;5.55;;;2.80;;
67816;SDS011;54614;47.576;7.524;2023-02-21T06:05:17;3.17;;;2.72;;
67816;SDS011;54614;47.576;7.524;2023-02-21T06:07:44;3.92;;;2.00;;
67816;SDS011;54614;47.576;7.524;2023-02-21T06:10:11;2.50;;;2.30;;
67816;SDS011;54614;47.576;7.524;2023-02-21T06:12:37;3.00;;;1.88;;
67816;SDS011;54614;47.576;7.524;2023-02-21T06:15:03;4.18;;;2.03;;
67816;SDS011;54614;47.576;7.524;2023-02-21T06:17:40;3.40;;;1.95;;
67816;SDS011;54614;47.576;7.524;2023-02-21T06:20:09;2.65;;;2.15;;
67816;SDS011;54614;47.576;7.524;2023-02-21T06:22:38;1.90;;;1.80;;
67816;SDS011;54614;47.576;7.524;2023-02-21T06:25:05;2.45;;;2.00;;
67816;SDS011;54614;47.576;7.524;2023-02-21T06:27:31;5.75;;;2.45;;
67816;SDS011;54614;47.576;7.524;2023-02-21T06:29:57;3.75;;;2.03;;
67816;SDS011;54614;47.576;7.524;2023-02-21T06:32:23;3.15;;;2.20;;
67816;SDS011;54614;47.576;7.524;2023-02-21T06:34:49;2.65;;;2.25;;
67816;SDS011;54614;47.576;7.524;2023-02-21T06:37:16;2.38;;;2.17;;
67816;SDS011;54614;47.576;7.524;2023-02-21T06:39:43;3.25;;;2.25;;
67816;SDS011;54614;47.576;7.524;2023-02-21T06:42:12;3.35;;;2.28;;
67816;SDS011;54614;47.576;7.524;2023-02-21T06:44:41;5.03;;;2.20;;
67816;SDS011;54614;47.576;7.524;2023-02-21T06:47:08;3.58;;;2.70;;
67816;SDS011;54614;47.576;7.524;2023-02-21T06:49:34;2.88;;;2.17;;
67816;SDS011;54614;47.576;7.524;2023-02-21T06:52:00;2.55;;;2.35;;
67816;SDS011;54614;47.576;7.524;2023-02-21T06:54:26;2.78;;;2.35;;
67816;SDS011;54614;47.576;7.524;2023-02-21T06:56:54;4.63;;;2.42;;
67816;SDS011;54614;47.576;7.524;2023-02-21T06:59:24;6.60;;;2.20;;
67816;SDS011;54614;47.576;7.524;2023-02-21T07:01:50;3.13;;;2.10;;
67816;SDS011;54614;47.576;7.524;2023-02-21T07:04:16;9.75;;;2.20;;
67816;SDS011;54614;47.576;7.524;2023-02-21T07:06:42;6.47;;;2.42;;
67816;SDS011;54614;47.576;7.524;2023-02-21T07:09:07;5.22;;;2.42;;
67816;SDS011;54614;47.576;7.524;2023-02-21T07:11:33;8.15;;;2.42;;
67816;SDS011;54614;47.576;7.524;2023-02-21T07:13:59;6.80;;;2.13;;
67816;SDS011;54614;47.576;7.524;2023-02-21T07:16:26;3.85;;;2.63;;
67816;SDS011;54614;47.576;7.524;2023-02-21T07:18:52;9.05;;;2.50;;
67816;SDS011;54614;47.576;7.524;2023-02-21T07:21:19;5.70;;;2.55;;
67816;SDS011;54614;47.576;7.524;2023-02-21T07:23:46;4.97;;;2.47;;
67816;SDS011;54614;47.576;7.524;2023-02-21T07:26:13;9.43;;;2.80;;
67816;SDS011;54614;47.576;7.524;2023-02-21T07:28:40;5.85;;;2.20;;
67816;SDS011;54614;47.576;7.524;2023-02-21T07:31:06;9.45;;;2.63;;
67816;SDS011;54614;47.576;7.524;2023-02-21T07:33:34;8.55;;;2.30;;
67816;SDS011;54614;47.576;7.524;2023-02-21T07:36:01;5.43;;;2.03;;
67816;SDS011;54614;47.576;7.524;2023-02-21T07:38:28;2.65;;;1.92;;
67816;SDS011;54614;47.576;7.524;2023-02-21T07:40:55;4.30;;;2.28;;
67816;SDS011;54614;47.576;7.524;2023-02-21T07:43:25;3.72;;;2.40;;
67816;SDS011;54614;47.576;7.524;2023-02-21T07:45:52;5.60;;;2.13;;
67816;SDS011;54614;47.576;7.524;2023-02-21T07:48:18;7.43;;;2.22;;
67816;SDS011;54614;47.576;7.524;2023-02-21T07:50:45;4.53;;;2.00;;
67816;SDS011;54614;47.576;7.524;2023-02-21T07:53:11;5.25;;;1.90;;
67816;SDS011;54614;47.576;7.524;2023-02-21T07:55:38;6.75;;;2.17;;
67816;SDS011;54614;47.576;7.524;2023-02-21T07:58:04;8.40;;;2.20;;
67816;SDS011;54614;47.576;7.524;2023-02-21T08:00:30;2.38;;;1.80;;
67816;SDS011;54614;47.576;7.524;2023-02-21T08:02:57;3.25;;;2.00;;
67816;SDS011;54614;47.576;7.524;2023-02-21T08:05:23;3.97;;;1.98;;
67816;SDS011;54614;47.576;7.524;2023-02-21T08:07:49;11.55;;;2.30;;
67816;SDS011;54614;47.576;7.524;2023-02-21T08:10:20;2.13;;;1.92;;
67816;SDS011;54614;47.576;7.524;2023-02-21T08:12:49;3.63;;;2.00;;
67816;SDS011;54614;47.576;7.524;2023-02-21T08:15:15;3.20;;;2.17;;
67816;SDS011;54614;47.576;7.524;2023-02-21T08:17:42;4.97;;;2.10;;
67816;SDS011;54614;47.576;7.524;2023-02-21T08:20:08;4.00;;;1.90;;
67816;SDS011;54614;47.576;7.524;2023-02-21T08:22:37;3.80;;;1.90;;
67816;SDS011;54614;47.576;7.524;2023-02-21T08:25:03;3.38;;;1.95;;
67816;SDS011;54614;47.576;7.524;2023-02-21T08:27:29;7.07;;;2.00;;
67816;SDS011;54614;47.576;7.524;2023-02-21T08:29:55;2.17;;;1.90;;
67816;SDS011;54614;47.576;7.524;2023-02-21T08:32:21;2.65;;;1.70;;
67816;SDS011;54614;47.576;7.524;2023-02-21T08:34:47;4.85;;;2.20;;
67816;SDS011;54614;47.576;7.524;2023-02-21T08:37:13;4.40;;;1.88;;
67816;SDS011;54614;47.576;7.524;2023-02-21T08:39:47;3.38;;;1.92;;
67816;SDS011;54614;47.576;7.524;2023-02-21T08:42:16;5.43;;;2.03;;
67816;SDS011;54614;47.576;7.524;2023-02-21T08:44:43;3.70;;;1.92;;
67816;SDS011;54614;47.576;7.524;2023-02-21T08:47:11;3.08;;;1.88;;
67816;SDS011;54614;47.576;7.524;2023-02-21T08:49:39;3.75;;;1.67;;
67816;SDS011;54614;47.576;7.524;2023-02-21T08:52:09;3.67;;;1.73;;
67816;SDS011;54614;47.576;7.524;2023-02-21T08:54:35;2.00;;;1.80;;
67816;SDS011;54614;47.576;7.524;2023-02-21T08:57:01;5.60;;;1.88;;
67816;SDS011;54614;47.576;7.524;2023-02-21T08:59:28;3.05;;;1.90;;
67816;SDS011;54614;47.576;7.524;2023-02-21T09:01:57;3.60;;;1.77;;
67816;SDS011;54614;47.576;7.524;2023-02-21T09:04:26;2.10;;;1.70;;
67816;SDS011;54614;47.576;7.524;2023-02-21T09:06:52;3.10;;;1.80;;
67816;SDS011;54614;47.576;7.524;2023-02-21T09:09:19;2.30;;;1.75;;
67816;SDS011;54614;47.576;7.524;2023-02-21T09:11:46;2.63;;;1.73;;
67816;SDS011;54614;47.576;7.524;2023-02-21T09:14:13;4.13;;;1.90;;
67816;SDS011;54614;47.576;7.524;2023-02-21T09:16:40;2.00;;;1.80;;
67816;SDS011;54614;47.576;7.524;2023-02-21T09:19:07;2.90;;;1.85;;
67816;SDS011;54614;47.576;7.524;2023-02-21T09:21:34;3.65;;;1.75;;
67816;SDS011;54614;47.576;7.524;2023-02-21T09:24:09;1.90;;;1.70;;
67816;SDS011;54614;47.576;7.524;2023-02-21T09:26:35;3.67;;;1.80;;
67816;SDS011;54614;47.576;7.524;2023-02-21T09:29:01;1.92;;;1.75;;
67816;SDS011;54614;47.576;7.524;2023-02-21T09:31:26;3.13;;;1.88;;
67816;SDS011;54614;47.576;7.524;2023-02-21T09:33:52;2.30;;;1.80;;
67816;SDS011;54614;47.576;7.524;2023-02-21T09:36:18;1.90;;;1.80;;
67816;SDS011;54614;47.576;7.524;2023-02-21T09:38:48;3.33;;;1.63;;
67816;SDS011;54614;47.576;7.524;2023-02-21T09:41:15;2.72;;;1.73;;
67816;SDS011;54614;47.576;7.524;2023-02-21T09:43:47;5.97;;;1.95;;
67816;SDS011;54614;47.576;7.524;2023-02-21T09:46:20;1.98;;;1.70;;
67816;SDS011;54614;47.576;7.524;2023-02-21T09:49:02;2.65;;;1.75;;
67816;SDS011;54614;47.576;7.524;2023-02-21T09:51:35;2.35;;;1.65;;
67816;SDS011;54614;47.576;7.524;2023-02-21T09:54:05;2.47;;;1.70;;
67816;SDS011;54614;47.576;7.524;2023-02-21T09:56:48;1.70;;;1.60;;
67816;SDS011;54614;47.576;7.524;2023-02-21T09:59:14;2.67;;;1.80;;
67816;SDS011;54614;47.576;7.524;2023-02-21T10:04:59;3.97;;;1.80;;
67816;SDS011;54614;47.576;7.524;2023-02-21T10:10:54;1.83;;;1.67;;
67816;SDS011;54614;47.576;7.524;2023-02-21T10:16:23;1.90;;;1.80;;
67816;SDS011;54614;47.576;7.524;2023-02-21T10:21:47;2.03;;;1.80;;
67816;SDS011;54614;47.576;7.524;2023-02-21T10:24:20;2.35;;;1.70;;
67816;SDS011;54614;47.576;7.524;2023-02-21T10:26:57;1.70;;;1.48;;
67816;SDS011;54614;47.576;7.524;2023-02-21T10:29:37;1.80;;;1.70;;
67816;SDS011;54614;47.576;7.524;2023-02-21T10:32:08;3.10;;;1.70;;
67816;SDS011;54614;47.576;7.524;2023-02-21T10:34:34;1.77;;;1.67;;
67816;SDS011;54614;47.576;7.524;2023-02-21T10:37:25;1.63;;;1.52;;
67816;SDS011;54614;47.576;7.524;2023-02-21T10:40:06;3.20;;;1.92;;
67816;SDS011;54614;47.576;7.524;2023-02-21T10:46:08;1.92;;;1.60;;
67816;SDS011;54614;47.576;7.524;2023-02-21T10:48:50;1.60;;;1.50;;
67816;SDS011;54614;47.576;7.524;2023-02-21T10:51:29;7.13;;;1.60;;
67816;SDS011;54614;47.576;7.524;2023-02-21T10:56:48;2.05;;;1.60;;
67816;SDS011;54614;47.576;7.524;2023-02-21T11:01:56;1.80;;;1.50;;
67816;SDS011;54614;47.576;7.524;2023-02-21T11:04:26;2.20;;;1.55;;
67816;SDS011;54614;47.576;7.524;2023-02-21T11:07:03;2.47;;;1.52;;
67816;SDS011;54614;47.576;7.524;2023-02-21T11:09:39;1.70;;;1.60;;
67816;SDS011;54614;47.576;7.524;2023-02-21T11:12:25;2.10;;;1.40;;
67816;SDS011;54614;47.576;7.524;2023-02-21T11:17:24;1.58;;;1.48;;
67816;SDS011;54614;47.576;7.524;2023-02-21T11:19:56;2.45;;;1.60;;
67816;SDS011;54614;47.576;7.524;2023-02-21T11:22:42;1.63;;;1.45;;
67816;SDS011;54614;47.576;7.524;2023-02-21T11:30:37;1.52;;;1.40;;
67816;SDS011;54614;47.576;7.524;2023-02-21T11:33:13;7.03;;;1.77;;
67816;SDS011;54614;47.576;7.524;2023-02-21T11:35:47;2.20;;;1.65;;
67816;SDS011;54614;47.576;7.524;2023-02-21T11:41:03;1.70;;;1.60;;
67816;SDS011;54614;47.576;7.524;2023-02-21T11:43:49;1.60;;;1.50;;
67816;SDS011;54614;47.576;7.524;2023-02-21T11:46:30;1.60;;;1.50;;
67816;SDS011;54614;47.576;7.524;2023-02-21T11:51:49;1.58;;;1.48;;
67816;SDS011;54614;47.576;7.524;2023-02-21T11:54:22;1.60;;;1.50;;
67816;SDS011;54614;47.576;7.524;2023-02-21T11:56:53;1.40;;;1.30;;
67816;SDS011;54614;47.576;7.524;2023-02-21T12:09:33;1.58;;;1.48;;
67816;SDS011;54614;47.576;7.524;2023-02-21T12:12:44;1.60;;;1.50;;
67816;SDS011;54614;47.576;7.524;2023-02-21T12:18:57;1.58;;;1.48;;
67816;SDS011;54614;47.576;7.524;2023-02-21T12:24:26;2.05;;;1.20;;
67816;SDS011;54614;47.576;7.524;2023-02-21T12:27:44;1.50;;;1.40;;
67816;SDS011;54614;47.576;7.524;2023-02-21T12:41:34;1.52;;;1.42;;
67816;SDS011;54614;47.576;7.524;2023-02-21T12:44:21;1.45;;;1.35;;
67816;SDS011;54614;47.576;7.524;2023-02-21T12:47:01;1.30;;;1.20;;
67816;SDS011;54614;47.576;7.524;2023-02-21T12:49:50;1.60;;;1.50;;
67816;SDS011;54614;47.576;7.524;2023-02-21T12:55:22;1.52;;;1.20;;
67816;SDS011;54614;47.576;7.524;2023-02-21T13:01:06;1.20;;;1.20;;
67816;SDS011;54614;47.576;7.524;2023-02-21T13:07:13;1.50;;;1.40;;
67816;SDS011;54614;47.576;7.524;2023-02-21T13:09:54;1.60;;;1.50;;
67816;SDS011;54614;47.576;7.524;2023-02-21T13:12:37;1.70;;;1.40;;
67816;SDS011;54614;47.576;7.524;2023-02-21T13:15:19;1.30;;;1.30;;
67816;SDS011;54614;47.576;7.524;2023-02-21T13:17:57;1.42;;;1.33;;
67816;SDS011;54614;47.576;7.524;2023-02-21T13:20:36;1.63;;;1.38;;
67816;SDS011;54614;47.576;7.524;2023-02-21T13:23:09;1.38;;;1.33;;
67816;SDS011;54614;47.576;7.524;2023-02-21T13:29:28;1.60;;;1.48;;
67816;SDS011;54614;47.576;7.524;2023-02-21T13:34:34;1.75;;;1.60;;
67816;SDS011;54614;47.576;7.524;2023-02-21T13:37:27;1.30;;;1.30;;
67816;SDS011;54614;47.576;7.524;2023-02-21T13:39:59;1.55;;;1.45;;
67816;SDS011;54614;47.576;7.524;2023-02-21T13:42:40;1.40;;;1.30;;
67816;SDS011;54614;47.576;7.524;2023-02-21T13:55:49;1.50;;;1.33;;
67816;SDS011;54614;47.576;7.524;2023-02-21T13:58:38;1.30;;;1.30;;
67816;SDS011;54614;47.576;7.524;2023-02-21T14:01:18;1.42;;;1.33;;
67816;SDS011;54614;47.576;7.524;2023-02-21T14:03:53;1.65;;;1.55;;
67816;SDS011;54614;47.576;7.524;2023-02-21T14:08:53;1.67;;;1.50;;
67816;SDS011;54614;47.576;7.524;2023-02-21T14:11:29;1.70;;;1.60;;
67816;SDS011;54614;47.576;7.524;2023-02-21T14:17:11;1.70;;;1.60;;
67816;SDS011;54614;47.576;7.524;2023-02-21T14:22:15;1.20;;;1.20;;
67816;SDS011;54614;47.576;7.524;2023-02-21T14:25:06;1.67;;;1.58;;
67816;SDS011;54614;47.576;7.524;2023-02-21T14:27:45;2.17;;;1.50;;
67816;SDS011;54614;47.576;7.524;2023-02-21T14:32:41;1.63;;;1.50;;
67816;SDS011;54614;47.576;7.524;2023-02-21T14:43:21;2.13;;;1.77;;
67816;SDS011;54614;47.576;7.524;2023-02-21T15:07:07;1.60;;;1.50;;
67816;SDS011;54614;47.576;7.524;2023-02-21T15:09:40;1.65;;;1.55;;
67816;SDS011;54614;47.576;7.524;2023-02-21T15:12:13;1.50;;;1.40;;
67816;SDS011;54614;47.576;7.524;2023-02-21T15:14:46;1.20;;;1.20;;
67816;SDS011;54614;47.576;7.524;2023-02-21T15:17:18;1.42;;;1.33;;
67816;SDS011;54614;47.576;7.524;2023-02-21T15:20:00;1.20;;;1.20;;
67816;SDS011;54614;47.576;7.524;2023-02-21T15:22:30;1.40;;;1.30;;
67816;SDS011;54614;47.576;7.524;2023-02-21T15:27:31;1.40;;;1.30;;
67816;SDS011;54614;47.576;7.524;2023-02-21T15:30:21;1.13;;;1.13;;
67816;SDS011;54614;47.576;7.524;2023-02-21T15:35:42;1.95;;;1.40;;
67816;SDS011;54614;47.576;7.524;2023-02-21T15:38:20;2.72;;;1.40;;
67816;SDS011;54614;47.576;7.524;2023-02-21T15:40:56;2.80;;;1.30;;
67816;SDS011;54614;47.576;7.524;2023-02-21T15:46:53;1.30;;;1.20;;
67816;SDS011;54614;47.576;7.524;2023-02-21T15:49:36;2.28;;;1.20;;
67816;SDS011;54614;47.576;7.524;2023-02-21T15:52:24;1.30;;;1.20;;
67816;SDS011;54614;47.576;7.524;2023-02-21T15:57:45;1.85;;;1.50;;
67816;SDS011;54614;47.576;7.524;2023-02-21T16:00:27;1.48;;;1.38;;
67816;SDS011;54614;47.576;7.524;2023-02-21T16:06:16;2.28;;;1.30;;
67816;SDS011;54614;47.576;7.524;2023-02-21T16:09:02;1.20;;;1.20;;
67816;SDS011;54614;47.576;7.524;2023-02-21T16:11:51;2.22;;;1.30;;
67816;SDS011;54614;47.576;7.524;2023-02-21T16:14:47;1.20;;;1.20;;
67816;SDS011;54614;47.576;7.524;2023-02-21T16:17:34;1.50;;;1.40;;
67816;SDS011;54614;47.576;7.524;2023-02-21T16:22:51;1.40;;;1.30;;
67816;SDS011;54614;47.576;7.524;2023-02-21T16:26:17;1.27;;;1.23;;
67816;SDS011;54614;47.576;7.524;2023-02-21T16:28:52;1.38;;;1.30;;
67816;SDS011;54614;47.576;7.524;2023-02-21T16:31:26;1.33;;;1.20;;
67816;SDS011;54614;47.576;7.524;2023-02-21T16:33:56;1.20;;;1.20;;
67816;SDS011;54614;47.576;7.524;2023-02-21T16:36:24;1.17;;;1.10;;
67816;SDS011;54614;47.576;7.524;2023-02-21T16:38:56;1.73;;;1.33;;
67816;SDS011;54614;47.576;7.524;2023-02-21T16:41:23;1.10;;;1.10;;
67816;SDS011;54614;47.576;7.524;2023-02-21T16:43:50;1.30;;;1.20;;
67816;SDS011;54614;47.576;7.524;2023-02-21T16:46:26;1.20;;;1.20;;
67816;SDS011;54614;47.576;7.524;2023-02-21T16:48:53;1.67;;;1.40;;
67816;SDS011;54614;47.576;7.524;2023-02-21T16:51:19;1.40;;;1.30;;
67816;SDS011;54614;47.576;7.524;2023-02-21T16:53:49;1.40;;;1.30;;
67816;SDS011;54614;47.576;7.524;2023-02-21T16:56:15;1.38;;;1.27;;
67816;SDS011;54614;47.576;7.524;2023-02-21T16:58:52;1.50;;;1.40;;
67816;SDS011;54614;47.576;7.524;2023-02-21T17:01:32;1.50;;;1.40;;
67816;SDS011;54614;47.576;7.524;2023-02-21T17:03:59;2.13;;;1.27;;
67816;SDS011;54614;47.576;7.524;2023-02-21T17:06:54;2.55;;;1.40;;
67816;SDS011;54614;47.576;7.524;2023-02-21T17:09:33;1.50;;;1.40;;
67816;SDS011;54614;47.576;7.524;2023-02-21T17:12:03;1.67;;;1.42;;
67816;SDS011;54614;47.576;7.524;2023-02-21T17:14:31;1.63;;;1.15;;
67816;SDS011;54614;47.576;7.524;2023-02-21T17:16:58;5.18;;;1.48;;
67816;SDS011;54614;47.576;7.524;2023-02-21T17:19:24;2.40;;;1.52;;
67816;SDS011;54614;47.576;7.524;2023-02-21T17:21:50;2.88;;;1.30;;
67816;SDS011;54614;47.576;7.524;2023-02-21T17:24:16;4.38;;;1.67;;
67816;SDS011;54614;47.576;7.524;2023-02-21T17:26:43;6.68;;;1.75;;
67816;SDS011;54614;47.576;7.524;2023-02-21T17:29:09;4.85;;;1.70;;
67816;SDS011;54614;47.576;7.524;2023-02-21T17:31:36;3.45;;;1.75;;
67816;SDS011;54614;47.576;7.524;2023-02-21T17:34:02;4.97;;;1.70;;
67816;SDS011;54614;47.576;7.524;2023-02-21T17:36:28;5.65;;;1.42;;
67816;SDS011;54614;47.576;7.524;2023-02-21T17:38:54;5.95;;;1.77;;
67816;SDS011;54614;47.576;7.524;2023-02-21T17:41:21;4.82;;;1.70;;
67816;SDS011;54614;47.576;7.524;2023-02-21T17:43:47;5.32;;;1.70;;
67816;SDS011;54614;47.576;7.524;2023-02-21T17:46:14;5.13;;;1.80;;
67816;SDS011;54614;47.576;7.524;2023-02-21T17:48:43;6.45;;;2.10;;
67816;SDS011;54614;47.576;7.524;2023-02-21T17:51:15;4.95;;;1.70;;
67816;SDS011;54614;47.576;7.524;2023-02-21T17:53:44;6.43;;;2.15;;
67816;SDS011;54614;47.576;7.524;2023-02-21T17:56:09;7.07;;;1.92;;
67816;SDS011;54614;47.576;7.524;2023-02-21T17:58:35;8.00;;;1.73;;
67816;SDS011;54614;47.576;7.524;2023-02-21T18:01:01;7.47;;;1.90;;
67816;SDS011;54614;47.576;7.524;2023-02-21T18:03:27;8.23;;;2.13;;
67816;SDS011;54614;47.576;7.524;2023-02-21T18:05:53;7.32;;;2.22;;
67816;SDS011;54614;47.576;7.524;2023-02-21T18:08:19;6.65;;;2.10;;
67816;SDS011;54614;47.576;7.524;2023-02-21T18:10:45;5.18;;;2.15;;
67816;SDS011;54614;47.576;7.524;2023-02-21T18:13:14;13.10;;;1.92;;
67816;SDS011;54614;47.576;7.524;2023-02-21T18:15:46;10.63;;;2.00;;
67816;SDS011;54614;47.576;7.524;2023-02-21T18:18:12;6.03;;;2.00;;
67816;SDS011;54614;47.576;7.524;2023-02-21T18:20:38;8.30;;;2.03;;
67816;SDS011;54614;47.576;7.524;2023-02-21T18:23:04;6.00;;;2.20;;
67816;SDS011;54614;47.576;7.524;2023-02-21T18:25:31;13.88;;;2.10;;
67816;SDS011;54614;47.576;7.524;2023-02-21T18:27:59;6.90;;;2.05;;
67816;SDS011;54614;47.576;7.524;2023-02-21T18:30:26;8.90;;;1.80;;
67816;SDS011;54614;47.576;7.524;2023-02-21T18:32:52;5.78;;;2.00;;
67816;SDS011;54614;47.576;7.524;2023-02-21T18:35:19;12.43;;;2.20;;